createdAt,value
2022-09-13T15:26:49.499Z,21.94
2022-09-13T15:27:19.877Z,21.94
2022-09-13T15:27:50.309Z,21.94
2022-09-13T15:28:20.733Z,21.94
2022-09-13T15:28:51.156Z,21.92
2022-09-13T15:29:21.582Z,21.92
2022-09-13T15:29:52.014Z,21.92
2022-09-13T15:30:22.440Z,21.92
2022-09-13T15:30:52.880Z,21.92
2022-09-13T15:31:23.423Z,21.92
2022-09-13T15:31:53.915Z,21.98
2022-09-13T15:32:24.279Z,21.94
2022-09-13T15:32:54.701Z,21.96
2022-09-13T15:33:25.126Z,21.96
2022-09-13T15:33:55.567Z,21.96
2022-09-13T15:34:25.992Z,21.96
2022-09-13T15:34:56.413Z,21.96
2022-09-13T15:35:26.832Z,21.96
2022-09-13T15:35:57.247Z,21.96
2022-09-13T15:36:27.670Z,21.96
2022-09-13T15:36:58.111Z,21.96
2022-09-13T15:37:28.570Z,21.96
2022-09-13T15:37:58.993Z,21.96
2022-09-13T15:38:29.413Z,21.94
2022-09-13T15:38:59.847Z,21.94
2022-09-13T15:39:30.282Z,21.96
2022-09-13T15:40:00.749Z,21.94
2022-09-13T15:40:31.253Z,21.92
2022-09-13T15:41:01.646Z,21.94
2022-09-13T15:41:32.078Z,21.96
2022-09-13T15:42:02.542Z,21.96
2022-09-13T15:42:32.947Z,21.99
2022-09-13T15:43:03.367Z,21.96
2022-09-13T15:43:33.795Z,21.98
2022-09-13T15:44:04.230Z,21.96
2022-09-13T15:44:34.653Z,21.96
2022-09-13T15:45:05.086Z,21.98
2022-09-13T15:45:35.509Z,21.98
2022-09-13T15:46:05.932Z,21.96
2022-09-13T15:46:36.384Z,21.98
2022-09-13T15:47:06.855Z,21.98
2022-09-13T15:47:37.254Z,21.98
2022-09-13T15:48:07.683Z,21.99
2022-09-13T15:48:38.105Z,21.99
2022-09-13T15:49:08.531Z,21.99
2022-09-13T15:49:38.952Z,21.98
2022-09-13T15:50:09.400Z,21.98
2022-09-13T15:50:39.834Z,21.96
2022-09-13T15:51:10.254Z,21.96
2022-09-13T15:51:40.674Z,21.96
2022-09-13T15:52:11.118Z,21.96
2022-09-13T15:52:41.548Z,21.98
2022-09-13T15:53:11.974Z,21.98
2022-09-13T15:53:42.411Z,21.98
2022-09-13T15:54:12.837Z,21.98
2022-09-13T15:54:43.253Z,21.96
2022-09-13T15:55:13.677Z,21.98
2022-09-13T15:55:44.134Z,21.99
2022-09-13T15:56:14.564Z,21.98
2022-09-13T15:56:44.986Z,21.98
2022-09-13T15:57:15.547Z,21.98
2022-09-13T15:57:45.899Z,21.96
2022-09-13T15:58:16.318Z,21.94
2022-09-13T15:58:46.821Z,21.94
2022-09-13T15:59:17.207Z,21.92
2022-09-13T15:59:47.633Z,21.92
2022-09-13T16:00:18.056Z,21.92
2022-09-13T16:00:48.506Z,21.91
2022-09-13T16:01:19.004Z,21.91
2022-09-13T16:01:49.476Z,21.90
2022-09-13T16:02:19.986Z,21.90
2022-09-13T16:02:50.392Z,21.90
2022-09-13T16:03:20.825Z,21.88
2022-09-13T16:03:51.246Z,21.90
2022-09-13T16:04:21.671Z,21.86
2022-09-13T16:04:52.094Z,21.90
2022-09-13T16:05:22.515Z,21.88
2022-09-13T16:05:52.935Z,21.88
2022-09-13T16:06:24.784Z,21.88
2022-09-13T16:06:55.266Z,21.86
2022-09-13T16:07:25.699Z,21.86
2022-09-13T16:07:56.129Z,21.84
2022-09-13T16:08:26.559Z,21.84
2022-09-13T16:08:56.985Z,21.83
2022-09-13T16:09:27.404Z,21.84
2022-09-13T16:09:57.827Z,21.86
2022-09-13T16:10:28.269Z,21.84
2022-09-13T16:10:58.691Z,21.83
2022-09-13T16:11:29.123Z,21.83
2022-09-13T16:11:59.543Z,21.83
2022-09-13T16:12:29.997Z,21.82
2022-09-13T16:13:00.404Z,21.83
2022-09-13T16:13:30.837Z,21.83
2022-09-13T16:14:01.296Z,21.82
2022-09-13T16:14:31.718Z,21.80
2022-09-13T16:15:02.136Z,21.82
2022-09-13T16:15:32.555Z,21.80
2022-09-13T16:16:03.030Z,21.82
2022-09-13T16:16:33.448Z,21.80
2022-09-13T16:17:03.830Z,21.80
2022-09-13T16:17:34.263Z,21.80
2022-09-13T16:18:04.685Z,21.80
2022-09-13T16:18:35.105Z,21.80
2022-09-13T16:19:05.537Z,21.80
2022-09-13T16:19:35.954Z,21.80
2022-09-13T16:20:06.378Z,21.82
2022-09-13T16:20:36.799Z,21.80
2022-09-13T16:21:07.245Z,21.80
2022-09-13T16:21:37.684Z,21.80
2022-09-13T16:22:12.551Z,21.80
2022-09-13T16:22:43.206Z,21.80
2022-09-13T16:23:13.639Z,21.79
2022-09-13T16:23:44.055Z,21.77
2022-09-13T16:24:14.478Z,21.77
2022-09-13T16:24:44.899Z,21.75
2022-09-13T16:25:15.337Z,21.79
2022-09-13T16:25:45.738Z,21.79
2022-09-13T16:26:16.172Z,21.79
2022-09-13T16:26:46.602Z,21.79
2022-09-13T16:27:17.025Z,21.80
2022-09-13T16:27:47.510Z,21.80
2022-09-13T16:28:17.906Z,21.79
2022-09-13T16:28:48.388Z,21.80
2022-09-13T16:29:18.830Z,21.79
2022-09-13T16:29:49.254Z,21.80
2022-09-13T16:30:19.690Z,21.82
2022-09-13T16:30:50.109Z,21.80
2022-09-13T16:31:20.575Z,21.80
2022-09-13T16:31:50.998Z,21.82
2022-09-13T16:32:21.399Z,21.80
2022-09-13T16:32:51.834Z,21.80
2022-09-13T16:33:22.261Z,21.82
2022-09-13T16:33:52.682Z,21.80
2022-09-13T16:34:23.100Z,21.80
2022-09-13T16:34:53.520Z,21.80
2022-09-13T16:35:23.945Z,21.80
2022-09-13T16:35:55.645Z,21.79
2022-09-13T16:36:27.420Z,21.80
2022-09-13T16:36:57.844Z,21.79
2022-09-13T16:37:28.266Z,21.79
2022-09-13T16:37:58.714Z,21.79
2022-09-13T16:38:29.135Z,21.80
2022-09-13T16:38:59.573Z,21.79
2022-09-13T16:39:29.983Z,21.79
2022-09-13T16:40:00.472Z,21.80
2022-09-13T16:40:30.978Z,21.82
2022-09-13T16:41:01.368Z,21.82
2022-09-13T16:41:31.792Z,21.82
2022-09-13T16:42:02.218Z,21.82
2022-09-13T16:42:32.649Z,21.82
2022-09-13T16:43:03.111Z,21.83
2022-09-13T16:43:33.518Z,21.83
2022-09-13T16:44:03.939Z,21.83
2022-09-13T16:44:34.363Z,21.83
2022-09-13T16:45:04.784Z,21.83
2022-09-13T16:45:35.203Z,21.83
2022-09-13T16:46:05.669Z,21.83
2022-09-13T16:46:36.134Z,21.84
2022-09-13T16:47:06.526Z,21.86
2022-09-13T16:47:36.949Z,21.83
2022-09-13T16:48:07.385Z,21.84
2022-09-13T16:48:37.807Z,21.84
2022-09-13T16:49:08.244Z,21.84
2022-09-13T16:49:38.669Z,21.86
2022-09-13T16:50:09.088Z,21.86
2022-09-13T16:50:39.507Z,21.86
2022-09-13T16:51:09.945Z,21.86
2022-09-13T16:51:40.372Z,21.86
2022-09-13T16:52:10.801Z,21.84
2022-09-13T16:52:41.250Z,21.88
2022-09-13T16:53:11.685Z,21.86
2022-09-13T16:53:42.112Z,21.84
2022-09-13T16:54:12.527Z,21.86
2022-09-13T16:54:42.949Z,21.90
2022-09-13T16:55:13.367Z,21.88
2022-09-13T16:55:43.813Z,21.86
2022-09-13T16:56:14.232Z,21.86
2022-09-13T16:56:44.644Z,21.86
2022-09-13T16:57:15.086Z,21.88
2022-09-13T16:57:45.517Z,21.90
2022-09-13T16:58:16.054Z,21.88
2022-09-13T16:58:46.498Z,21.86
2022-09-13T16:59:16.890Z,21.88
2022-09-13T16:59:47.369Z,21.88
2022-09-13T17:00:17.791Z,21.88
2022-09-13T17:00:48.215Z,21.88
2022-09-13T17:01:18.734Z,21.88
2022-09-13T17:01:49.199Z,21.88
2022-09-13T17:02:19.702Z,21.88
2022-09-13T17:02:50.272Z,21.88
2022-09-13T17:03:20.909Z,21.90
2022-09-13T17:03:54.572Z,21.90
2022-09-13T17:04:25.376Z,21.88
2022-09-13T17:04:55.808Z,21.88
2022-09-13T17:05:26.232Z,21.88
2022-09-13T17:05:56.658Z,21.86
2022-09-13T17:06:27.097Z,21.88
2022-09-13T17:06:57.521Z,21.88
2022-09-13T17:07:27.943Z,21.90
2022-09-13T17:07:58.366Z,21.90
2022-09-13T17:08:28.808Z,21.88
2022-09-13T17:08:59.231Z,21.90
2022-09-13T17:09:29.651Z,21.88
2022-09-13T17:10:00.095Z,21.86
2022-09-13T17:10:30.508Z,21.88
2022-09-13T17:11:00.932Z,21.84
2022-09-13T17:11:31.359Z,21.86
2022-09-13T17:12:01.783Z,21.86
2022-09-13T17:12:32.206Z,21.86
2022-09-13T17:13:02.630Z,21.88
2022-09-13T17:13:33.083Z,21.86
2022-09-13T17:14:04.682Z,21.86
2022-09-13T17:14:35.206Z,21.86
2022-09-13T17:15:05.629Z,21.84
2022-09-13T17:15:36.112Z,21.83
2022-09-13T17:16:06.608Z,21.86
2022-09-13T17:16:37.029Z,21.86
2022-09-13T17:17:07.434Z,21.84
2022-09-13T17:17:37.845Z,21.84
2022-09-13T17:18:08.269Z,21.86
2022-09-13T17:18:38.714Z,21.86
2022-09-13T17:19:09.135Z,21.84
2022-09-13T17:19:39.604Z,21.86
2022-09-13T17:20:10.037Z,21.86
2022-09-13T17:20:40.445Z,21.86
2022-09-13T17:21:10.868Z,21.86
2022-09-13T17:21:41.291Z,21.84
2022-09-13T17:22:11.719Z,21.84
2022-09-13T17:22:42.162Z,21.84
2022-09-13T17:23:12.585Z,21.84
2022-09-13T17:23:43.029Z,21.86
2022-09-13T17:24:13.907Z,21.86
2022-09-13T17:24:44.342Z,21.84
2022-09-13T17:25:14.759Z,21.88
2022-09-13T17:25:45.179Z,21.86
2022-09-13T17:26:15.602Z,21.84
2022-09-13T17:26:46.024Z,21.86
2022-09-13T17:27:16.442Z,21.86
2022-09-13T17:27:46.868Z,21.86
2022-09-13T17:28:17.291Z,21.86
2022-09-13T17:28:47.767Z,21.86
2022-09-13T17:29:18.176Z,21.88
2022-09-13T17:29:48.601Z,21.86
2022-09-13T17:30:19.032Z,21.84
2022-09-13T17:30:49.520Z,21.84
2022-09-13T17:31:19.961Z,21.88
2022-09-13T17:31:50.410Z,21.84
2022-09-13T17:32:20.792Z,21.84
2022-09-13T17:32:51.223Z,21.90
2022-09-13T17:33:21.684Z,21.86
2022-09-13T17:33:52.122Z,21.86
2022-09-13T17:34:22.553Z,21.86
2022-09-13T17:34:52.986Z,21.86
2022-09-13T17:35:23.407Z,21.84
2022-09-13T17:35:53.858Z,21.84
2022-09-13T17:36:24.280Z,21.83
2022-09-13T17:36:54.711Z,21.83
2022-09-13T17:37:25.122Z,21.83
2022-09-13T17:37:55.549Z,21.83
2022-09-13T17:38:25.982Z,21.84
2022-09-13T17:38:56.405Z,21.86
2022-09-13T17:39:26.835Z,21.84
2022-09-13T17:39:57.324Z,21.83
2022-09-13T17:40:27.749Z,21.84
2022-09-13T17:40:58.162Z,21.84
2022-09-13T17:41:28.591Z,21.84
2022-09-13T17:41:59.036Z,21.84
2022-09-13T17:42:29.458Z,21.84
2022-09-13T17:42:59.877Z,21.86
2022-09-13T17:43:30.296Z,21.83
2022-09-13T17:44:00.750Z,21.84
2022-09-13T17:44:31.154Z,21.84
2022-09-13T17:45:01.587Z,21.84
2022-09-13T17:45:32.014Z,21.88
2022-09-13T17:46:02.462Z,21.86
2022-09-13T17:46:32.947Z,21.86
2022-09-13T17:47:03.357Z,21.86
2022-09-13T17:47:33.768Z,21.86
2022-09-13T17:48:04.191Z,21.88
2022-09-13T17:48:34.615Z,21.88
2022-09-13T17:49:05.055Z,21.90
2022-09-13T17:49:35.480Z,21.90
2022-09-13T17:50:05.901Z,21.86
2022-09-13T17:50:36.328Z,21.88
2022-09-13T17:51:06.749Z,21.88
2022-09-13T17:51:37.171Z,21.88
2022-09-13T17:52:07.596Z,21.86
2022-09-13T17:52:38.019Z,21.86
2022-09-13T17:53:08.440Z,21.86
2022-09-13T17:53:38.917Z,21.86
2022-09-13T17:54:09.336Z,21.84
2022-09-13T17:54:39.762Z,21.86
2022-09-13T17:55:10.179Z,21.84
2022-09-13T17:55:40.601Z,21.84
2022-09-13T17:56:11.028Z,21.84
2022-09-13T17:56:41.455Z,21.84
2022-09-13T17:57:11.935Z,21.86
2022-09-13T17:57:42.333Z,21.84
2022-09-13T17:58:12.754Z,21.84
2022-09-13T17:58:43.178Z,21.84
2022-09-13T17:59:13.647Z,21.84
2022-09-13T17:59:44.042Z,21.84
2022-09-13T18:00:14.459Z,21.83
2022-09-13T18:00:44.881Z,21.83
2022-09-13T18:01:15.354Z,21.84
2022-09-13T18:01:45.794Z,21.84
2022-09-13T18:02:16.287Z,21.84
2022-09-13T18:02:46.751Z,21.84
2022-09-13T18:03:17.214Z,21.84
2022-09-13T18:03:47.648Z,21.84
2022-09-13T18:04:18.085Z,21.88
2022-09-13T18:04:48.508Z,21.84
2022-09-13T18:05:18.929Z,21.86
2022-09-13T18:05:49.372Z,21.86
2022-09-13T18:06:19.792Z,21.84
2022-09-13T18:06:50.227Z,21.84
2022-09-13T18:07:20.659Z,21.86
2022-09-13T18:07:51.084Z,21.86
2022-09-13T18:08:21.505Z,21.84
2022-09-13T18:08:51.938Z,21.84
2022-09-13T18:09:22.383Z,21.86
2022-09-13T18:09:52.812Z,21.86
2022-09-13T18:10:45.479Z,21.84
2022-09-13T18:11:12.669Z,21.84
2022-09-13T18:11:33.888Z,21.86
2022-09-13T18:12:04.308Z,21.86
2022-09-13T18:12:34.733Z,21.86
2022-09-13T18:13:05.153Z,21.86
2022-09-13T18:13:35.581Z,21.88
2022-09-13T18:14:06.002Z,21.86
2022-09-13T18:14:36.456Z,21.84
2022-09-13T18:15:06.858Z,21.84
2022-09-13T18:15:37.302Z,21.86
2022-09-13T18:16:07.746Z,21.84
2022-09-13T18:16:38.136Z,21.84
2022-09-13T18:17:08.553Z,21.84
2022-09-13T18:17:38.979Z,21.84
2022-09-13T18:18:09.393Z,21.86
2022-09-13T18:18:43.833Z,21.86
2022-09-13T18:19:14.530Z,21.86
2022-09-13T18:19:46.704Z,21.84
2022-09-13T18:20:17.592Z,21.86
2022-09-13T18:20:48.011Z,21.86
2022-09-13T18:21:18.433Z,21.88
2022-09-13T18:21:48.854Z,21.86
2022-09-13T18:22:19.274Z,21.84
2022-09-13T18:22:49.709Z,21.86
2022-09-13T18:23:20.136Z,21.86
2022-09-13T18:23:50.555Z,21.86
2022-09-13T18:24:20.981Z,21.86
2022-09-13T18:24:51.436Z,21.86
2022-09-13T18:25:21.860Z,21.84
2022-09-13T18:25:52.278Z,21.84
2022-09-13T18:26:22.712Z,21.88
2022-09-13T18:26:53.154Z,21.86
2022-09-13T18:27:23.576Z,21.86
2022-09-13T18:27:53.999Z,21.88
2022-09-13T18:28:24.418Z,21.86
2022-09-13T18:28:54.842Z,21.86
2022-09-13T18:29:25.264Z,21.83
2022-09-13T18:29:55.728Z,21.84
2022-09-13T18:30:26.138Z,21.84
2022-09-13T18:30:56.610Z,21.86
2022-09-13T18:31:27.085Z,21.86
2022-09-13T18:31:57.476Z,21.84
2022-09-13T18:32:27.900Z,21.86
2022-09-13T18:32:58.320Z,21.86
2022-09-13T18:33:28.743Z,21.86
2022-09-13T18:33:59.163Z,21.86
2022-09-13T18:34:29.590Z,21.84
2022-09-13T18:35:00.026Z,21.84
2022-09-13T18:35:30.454Z,21.84
2022-09-13T18:36:00.875Z,21.84
2022-09-13T18:36:31.298Z,21.86
2022-09-13T18:37:01.720Z,21.86
2022-09-13T18:37:32.140Z,21.84
2022-09-13T18:38:02.566Z,21.84
2022-09-13T18:38:32.985Z,21.84
2022-09-13T18:39:03.441Z,21.86
2022-09-13T18:39:33.877Z,21.84
2022-09-13T18:40:04.465Z,21.84
2022-09-13T18:40:34.917Z,21.84
2022-09-13T18:41:05.290Z,21.84
2022-09-13T18:41:35.708Z,21.83
2022-09-13T18:42:06.126Z,21.84
2022-09-13T18:42:36.551Z,21.83
2022-09-13T18:43:06.990Z,21.83
2022-09-13T18:43:37.408Z,21.83
2022-09-13T18:44:07.830Z,21.83
2022-09-13T18:44:38.253Z,21.83
2022-09-13T18:45:08.754Z,21.83
2022-09-13T18:45:39.116Z,21.84
2022-09-13T18:46:09.575Z,21.83
2022-09-13T18:46:40.119Z,21.84
2022-09-13T18:47:10.511Z,21.83
2022-09-13T18:47:40.933Z,21.83
2022-09-13T18:48:11.355Z,21.80
2022-09-13T18:48:41.776Z,21.80
2022-09-13T18:49:12.205Z,21.80
2022-09-13T18:49:42.637Z,21.77
2022-09-13T18:50:15.756Z,21.77
2022-09-13T18:50:48.451Z,21.77
2022-09-13T18:51:18.876Z,21.74
2022-09-13T18:51:49.294Z,21.74
2022-09-13T18:52:19.734Z,21.71
2022-09-13T18:52:50.172Z,21.68
2022-09-13T18:53:31.755Z,21.65
2022-09-13T18:53:55.933Z,21.64
2022-09-13T18:54:26.352Z,21.61
2022-09-13T18:54:56.789Z,21.59
2022-09-13T18:55:27.223Z,21.58
2022-09-13T18:55:57.658Z,21.58
2022-09-13T18:56:28.083Z,21.56
2022-09-13T18:56:58.498Z,21.54
2022-09-13T18:57:28.922Z,21.54
2022-09-13T18:57:59.344Z,21.56
2022-09-13T18:58:29.788Z,21.54
2022-09-13T18:59:00.231Z,21.54
2022-09-13T18:59:30.692Z,21.54
2022-09-13T19:00:01.125Z,21.52
2022-09-13T19:00:31.594Z,21.52
2022-09-13T19:01:02.038Z,21.52
2022-09-13T19:01:32.615Z,21.49
2022-09-13T19:02:03.271Z,21.49
2022-09-13T19:02:33.991Z,21.47
2022-09-13T19:03:12.262Z,21.46
2022-09-13T19:03:39.974Z,21.47
2022-09-13T19:04:10.445Z,21.44
2022-09-13T19:04:40.867Z,21.46
2022-09-13T19:05:11.287Z,21.46
2022-09-13T19:05:41.723Z,21.46
2022-09-13T19:06:12.146Z,21.44
2022-09-13T19:06:42.569Z,21.43
2022-09-13T19:07:12.990Z,21.42
2022-09-13T19:07:43.408Z,21.42
2022-09-13T19:08:13.825Z,21.42
2022-09-13T19:08:44.248Z,21.40
2022-09-13T19:09:14.681Z,21.38
2022-09-13T19:09:45.089Z,21.38
2022-09-13T19:10:16.177Z,21.40
2022-09-13T19:10:46.678Z,21.38
2022-09-13T19:11:42.171Z,21.38
2022-09-13T19:11:52.424Z,21.37
2022-09-13T19:12:22.850Z,21.35
2022-09-13T19:12:53.268Z,21.37
2022-09-13T19:13:23.692Z,21.35
2022-09-13T19:13:54.111Z,21.35
2022-09-13T19:14:24.531Z,21.34
2022-09-13T19:14:54.955Z,21.35
2022-09-13T19:15:25.541Z,21.32
2022-09-13T19:15:56.136Z,21.34
2022-09-13T19:16:26.524Z,21.32
2022-09-13T19:16:56.947Z,21.32
2022-09-13T19:17:27.366Z,21.32
2022-09-13T19:17:57.789Z,21.34
2022-09-13T19:18:28.210Z,21.31
2022-09-13T19:18:58.628Z,21.32
2022-09-13T19:19:29.049Z,21.31
2022-09-13T19:19:59.469Z,21.31
2022-09-13T19:20:29.887Z,21.31
2022-09-13T19:21:00.329Z,21.31
2022-09-13T19:21:30.755Z,21.29
2022-09-13T19:22:01.173Z,21.29
2022-09-13T19:22:31.597Z,21.27
2022-09-13T19:23:02.017Z,21.28
2022-09-13T19:23:55.530Z,21.28
2022-09-13T19:24:11.651Z,21.28
2022-09-13T19:24:43.089Z,21.27
2022-09-13T19:25:13.508Z,21.27
2022-09-13T19:25:43.927Z,21.27
2022-09-13T19:26:14.363Z,21.25
2022-09-13T19:26:44.784Z,21.27
2022-09-13T19:27:15.205Z,21.24
2022-09-13T19:27:45.626Z,21.27
2022-09-13T19:28:16.058Z,21.27
2022-09-13T19:28:46.474Z,21.25
2022-09-13T19:29:16.896Z,21.24
2022-09-13T19:29:47.317Z,21.24
2022-09-13T19:30:17.738Z,21.22
2022-09-13T19:30:48.183Z,21.24
2022-09-13T19:31:18.676Z,21.22
2022-09-13T19:31:49.077Z,21.22
2022-09-13T19:32:19.491Z,21.21
2022-09-13T19:32:49.911Z,21.21
2022-09-13T19:33:20.352Z,21.17
2022-09-13T19:33:50.751Z,21.19
2022-09-13T19:34:21.172Z,21.17
2022-09-13T19:34:51.592Z,21.17
2022-09-13T19:35:22.235Z,21.19
2022-09-13T19:35:52.653Z,21.19
2022-09-13T19:36:23.092Z,21.19
2022-09-13T19:36:53.512Z,21.17
2022-09-13T19:37:23.935Z,21.17
2022-09-13T19:37:54.356Z,21.17
2022-09-13T19:38:24.773Z,21.17
2022-09-13T19:38:55.193Z,21.16
2022-09-13T19:39:29.178Z,21.19
2022-09-13T19:40:00.586Z,21.16
2022-09-13T19:40:31.049Z,21.16
2022-09-13T19:41:01.418Z,21.16
2022-09-13T19:41:31.868Z,21.16
2022-09-13T19:42:02.290Z,21.16
2022-09-13T19:42:32.717Z,21.14
2022-09-13T19:43:03.155Z,21.13
2022-09-13T19:43:33.569Z,21.14
2022-09-13T19:44:04.001Z,21.13
2022-09-13T19:44:34.418Z,21.12
2022-09-13T19:45:04.851Z,21.12
2022-09-13T19:45:35.273Z,21.12
2022-09-13T19:46:05.755Z,21.12
2022-09-13T19:46:36.272Z,21.10
2022-09-13T19:48:01.795Z,21.10
2022-09-13T19:48:52.619Z,21.09
2022-09-13T19:49:23.040Z,21.06
2022-09-13T19:49:53.467Z,21.07
2022-09-13T19:50:23.885Z,21.09
2022-09-13T19:50:54.303Z,21.06
2022-09-13T19:51:24.746Z,21.09
2022-09-13T19:51:55.198Z,21.06
2022-09-13T19:52:25.616Z,21.07
2022-09-13T19:52:56.040Z,21.06
2022-09-13T19:53:46.596Z,21.06
2022-09-13T19:54:01.794Z,21.06
2022-09-13T19:54:32.205Z,21.04
2022-09-13T19:55:02.620Z,21.04
2022-09-13T19:55:33.050Z,21.04
2022-09-13T19:56:03.465Z,21.03
2022-09-13T19:56:33.884Z,21.04
2022-09-13T19:57:04.319Z,21.04
2022-09-13T19:57:34.738Z,21.06
2022-09-13T19:58:05.158Z,21.03
2022-09-13T19:58:35.575Z,21.03
2022-09-13T19:59:05.993Z,21.03
2022-09-13T19:59:36.416Z,21.04
2022-09-13T20:00:06.851Z,21.03
2022-09-13T20:00:37.267Z,21.01
2022-09-13T20:01:07.717Z,21.01
2022-09-13T20:01:38.153Z,21.01
2022-09-13T20:02:08.660Z,21.01
2022-09-13T20:02:39.005Z,21.01
2022-09-13T20:03:09.429Z,20.99
2022-09-13T20:03:39.849Z,20.99
2022-09-13T20:04:10.270Z,21.01
2022-09-13T20:04:40.751Z,20.99
2022-09-13T20:05:11.204Z,20.99
2022-09-13T20:05:41.586Z,21.01
2022-09-13T20:06:12.010Z,20.99
2022-09-13T20:06:42.424Z,20.99
2022-09-13T20:07:12.857Z,20.98
2022-09-13T20:07:43.281Z,20.99
2022-09-13T20:08:13.701Z,20.98
2022-09-13T20:08:44.119Z,20.98
2022-09-13T20:09:14.541Z,20.97
2022-09-13T20:09:44.960Z,20.97
2022-09-13T20:10:15.379Z,20.98
2022-09-13T20:10:45.801Z,20.95
2022-09-13T20:11:16.217Z,20.97
2022-09-13T20:11:46.639Z,20.97
2022-09-13T20:12:17.081Z,20.97
2022-09-13T20:12:47.500Z,20.95
2022-09-13T20:13:17.920Z,20.97
2022-09-13T20:13:48.429Z,20.97
2022-09-13T20:14:18.990Z,20.94
2022-09-13T20:14:49.401Z,20.94
2022-09-13T20:15:19.822Z,20.94
2022-09-13T20:15:50.269Z,20.94
2022-09-13T20:16:20.707Z,20.94
2022-09-13T20:16:51.081Z,20.92
2022-09-13T20:17:21.662Z,20.94
2022-09-13T20:17:52.012Z,20.92
2022-09-13T20:18:22.432Z,20.92
2022-09-13T20:18:52.847Z,20.92
2022-09-13T20:19:40.559Z,20.94
2022-09-13T20:19:58.586Z,20.92
2022-09-13T20:20:29.007Z,20.92
2022-09-13T20:20:59.425Z,20.91
2022-09-13T20:21:29.846Z,20.92
2022-09-13T20:22:00.274Z,20.92
2022-09-13T20:22:30.810Z,20.91
2022-09-13T20:23:01.229Z,20.92
2022-09-13T20:23:31.651Z,20.89
2022-09-13T20:24:02.073Z,20.92
2022-09-13T20:24:32.505Z,20.91
2022-09-13T20:25:02.933Z,20.91
2022-09-13T20:25:33.352Z,20.91
2022-09-13T20:26:03.769Z,20.92
2022-09-13T20:26:34.194Z,20.88
2022-09-13T20:27:04.613Z,20.88
2022-09-13T20:27:35.052Z,20.89
2022-09-13T20:28:05.483Z,20.88
2022-09-13T20:28:35.915Z,20.88
2022-09-13T20:29:06.339Z,20.87
2022-09-13T20:29:36.758Z,20.88
2022-09-13T20:30:07.179Z,20.87
2022-09-13T20:30:37.694Z,20.87
2022-09-13T20:31:08.123Z,20.88
2022-09-13T20:31:38.500Z,20.85
2022-09-13T20:32:08.922Z,20.87
2022-09-13T20:32:39.476Z,20.87
2022-09-13T20:33:09.831Z,20.84
2022-09-13T20:33:40.256Z,20.85
2022-09-13T20:34:10.683Z,20.85
2022-09-13T20:34:41.099Z,20.85
2022-09-13T20:35:11.522Z,20.87
2022-09-13T20:35:41.940Z,20.85
2022-09-13T20:36:12.358Z,20.85
2022-09-13T20:36:42.777Z,20.87
2022-09-13T20:37:13.197Z,20.84
2022-09-13T20:37:43.634Z,20.85
2022-09-13T20:38:14.058Z,20.85
2022-09-13T20:38:44.479Z,20.82
2022-09-13T20:39:14.897Z,20.84
2022-09-13T20:39:45.411Z,20.84
2022-09-13T20:40:15.891Z,20.84
2022-09-13T20:40:46.302Z,20.82
2022-09-13T20:41:16.720Z,20.82
2022-09-13T20:41:47.144Z,20.80
2022-09-13T20:42:17.573Z,20.82
2022-09-13T20:42:48.010Z,20.84
2022-09-13T20:43:18.432Z,20.82
2022-09-13T20:43:49.053Z,20.80
2022-09-13T20:44:19.474Z,20.82
2022-09-13T20:44:49.892Z,20.80
2022-09-13T20:45:20.317Z,20.80
2022-09-13T20:45:50.782Z,20.82
2022-09-13T20:46:21.210Z,20.80
2022-09-13T20:46:51.605Z,20.80
2022-09-13T20:47:22.020Z,20.80
2022-09-13T20:47:52.489Z,20.79
2022-09-13T20:48:22.882Z,20.77
2022-09-13T20:48:53.304Z,20.80
2022-09-13T20:49:23.729Z,20.77
2022-09-13T20:49:54.145Z,20.79
2022-09-13T20:50:24.570Z,20.77
2022-09-13T20:50:54.984Z,20.79
2022-09-13T20:51:25.605Z,20.77
2022-09-13T20:51:56.010Z,20.79
2022-09-13T20:52:26.432Z,20.79
2022-09-13T20:52:56.882Z,20.77
2022-09-13T20:53:27.320Z,20.77
2022-09-13T20:53:57.726Z,20.76
2022-09-13T20:54:28.149Z,20.76
2022-09-13T20:54:58.572Z,20.79
2022-09-13T20:55:28.995Z,20.77
2022-09-13T20:55:59.424Z,20.77
2022-09-13T20:56:29.834Z,20.76
2022-09-13T20:57:00.263Z,20.77
2022-09-13T20:57:30.692Z,20.76
2022-09-13T20:58:01.126Z,20.76
2022-09-13T20:58:31.549Z,20.76
2022-09-13T20:59:01.965Z,20.74
2022-09-13T20:59:32.384Z,20.76
2022-09-13T21:00:02.816Z,20.74
2022-09-13T21:00:33.235Z,20.77
2022-09-13T21:01:03.690Z,20.74
2022-09-13T21:01:34.154Z,20.74
2022-09-13T21:02:04.688Z,20.76
2022-09-13T21:02:35.172Z,20.73
2022-09-13T21:03:05.591Z,20.74
2022-09-13T21:03:35.990Z,20.74
2022-09-13T21:04:06.412Z,20.76
2022-09-13T21:04:36.836Z,20.76
2022-09-13T21:05:07.267Z,20.73
2022-09-13T21:05:37.687Z,20.74
2022-09-13T21:06:08.111Z,20.74
2022-09-13T21:06:38.534Z,20.74
2022-09-13T21:07:13.694Z,20.74
2022-09-13T21:07:44.277Z,20.73
2022-09-13T21:08:14.716Z,20.74
2022-09-13T21:08:45.132Z,20.73
2022-09-13T21:09:15.551Z,20.72
2022-09-13T21:09:45.971Z,20.73
2022-09-13T21:10:16.385Z,20.73
2022-09-13T21:10:46.803Z,20.72
2022-09-13T21:11:17.222Z,20.73
2022-09-13T21:11:47.642Z,20.73
2022-09-13T21:12:18.063Z,20.72
2022-09-13T21:12:48.496Z,20.73
2022-09-13T21:13:18.932Z,20.72
2022-09-13T21:13:49.434Z,20.72
2022-09-13T21:14:19.839Z,20.72
2022-09-13T21:14:50.267Z,20.72
2022-09-13T21:15:20.686Z,20.72
2022-09-13T21:15:51.109Z,20.73
2022-09-13T21:16:21.594Z,20.70
2022-09-13T21:16:52.004Z,20.72
2022-09-13T21:17:22.397Z,20.73
2022-09-13T21:17:52.828Z,20.72
2022-09-13T21:18:23.285Z,20.72
2022-09-13T21:18:53.691Z,20.72
2022-09-13T21:19:24.106Z,20.72
2022-09-13T21:19:54.525Z,20.70
2022-09-13T21:20:24.945Z,20.70
2022-09-13T21:20:55.361Z,20.72
2022-09-13T21:21:25.778Z,20.72
2022-09-13T21:21:56.197Z,20.70
2022-09-13T21:22:26.629Z,20.70
2022-09-13T21:22:57.069Z,20.70
2022-09-13T21:23:27.511Z,20.69
2022-09-13T21:23:57.931Z,20.72
2022-09-13T21:24:28.351Z,20.70
2022-09-13T21:24:58.770Z,20.69
2022-09-13T21:25:29.192Z,20.69
2022-09-13T21:25:59.619Z,20.67
2022-09-13T21:26:30.054Z,20.69
2022-09-13T21:27:00.480Z,20.67
2022-09-13T21:27:30.899Z,20.66
2022-09-13T21:28:01.326Z,20.69
2022-09-13T21:28:31.766Z,20.66
2022-09-13T21:29:02.185Z,20.67
2022-09-13T21:29:32.603Z,20.64
2022-09-13T21:30:03.025Z,20.67
2022-09-13T21:30:33.507Z,20.67
2022-09-13T21:31:03.963Z,20.66
2022-09-13T21:31:34.385Z,20.67
2022-09-13T21:32:04.762Z,20.66
2022-09-13T21:32:35.179Z,20.67
2022-09-13T21:33:05.598Z,20.66
2022-09-13T21:33:36.067Z,20.67
2022-09-13T21:34:06.467Z,20.66
2022-09-13T21:34:36.885Z,20.66
2022-09-13T21:35:07.310Z,20.67
2022-09-13T21:35:37.730Z,20.66
2022-09-13T21:36:08.146Z,20.66
2022-09-13T21:36:38.566Z,20.66
2022-09-13T21:37:08.985Z,20.66
2022-09-13T21:37:39.403Z,20.66
2022-09-13T21:38:09.823Z,20.64
2022-09-13T21:38:40.262Z,20.66
2022-09-13T21:39:10.687Z,20.66
2022-09-13T21:39:41.194Z,20.66
2022-09-13T21:40:11.693Z,20.64
2022-09-13T21:40:42.066Z,20.62
2022-09-13T21:41:12.484Z,20.64
2022-09-13T21:41:42.902Z,20.64
2022-09-13T21:42:13.333Z,20.64
2022-09-13T21:42:43.751Z,20.62
2022-09-13T21:43:14.173Z,20.61
2022-09-13T21:43:44.624Z,20.61
2022-09-13T21:44:15.051Z,20.64
2022-09-13T21:44:45.470Z,20.61
2022-09-13T21:45:15.888Z,20.64
2022-09-13T21:45:46.369Z,20.62
2022-09-13T21:46:17.263Z,20.62
2022-09-13T21:46:47.707Z,20.61
2022-09-13T21:47:18.129Z,20.59
2022-09-13T21:47:48.549Z,20.61
2022-09-13T21:48:21.445Z,20.61
2022-09-13T21:48:52.501Z,20.59
2022-09-13T21:49:22.900Z,20.62
2022-09-13T21:49:53.318Z,20.61
2022-09-13T21:50:23.739Z,20.62
2022-09-13T21:50:54.154Z,20.61
2022-09-13T21:51:24.588Z,20.62
2022-09-13T21:51:55.007Z,20.59
2022-09-13T21:52:25.427Z,20.59
2022-09-13T21:52:55.851Z,20.61
2022-09-13T21:53:26.270Z,20.59
2022-09-13T21:53:58.961Z,20.58
2022-09-13T21:54:29.625Z,20.59
2022-09-13T21:55:00.041Z,20.59
2022-09-13T21:55:30.467Z,20.58
2022-09-13T21:56:00.903Z,20.58
2022-09-13T21:56:31.314Z,20.59
2022-09-13T21:57:01.729Z,20.58
2022-09-13T21:57:32.152Z,20.59
2022-09-13T21:58:02.569Z,20.58
2022-09-13T21:58:32.989Z,20.58
2022-09-13T21:59:03.426Z,20.57
2022-09-13T21:59:33.854Z,20.58
2022-09-13T22:00:04.269Z,20.58
2022-09-13T22:00:34.684Z,20.57
2022-09-13T22:01:05.143Z,20.57